d.8/12 - Jorden passerer meteorsværmen Geminiderne. Op mod 120 stjerneskud i timen, topper 14-15 december.


Vejr3>N more information Vejr3>N


Vejr3>V more information Vejr3>V


3 timers nedbørs radar more information rain snow radar


besøg nogle andre vejrsider:

Template dokumentation
og downloads

And another site


lokal metar reports

   
EKRK - Roskilde
opdateret: 12-12-2018 09:20
mest skyet  
mest skyet  
   vind: nnø 4.1 m/s
vind: nnø 4.1 m/s
temperatur: 2°C
wind chill: -2°C
dugpunkt: 0°C
fugtighed: 87%
barometer: 1028 hPa
skyer: Mostly Cloudy
sigt: 10 km
sky detaljer: mest skyet 2133.6 m
EKRK 120820Z AUTO 02008KT 9999NDV BKN070/// 02/00 Q1028
EKCH - Copenhagen
opdateret: 12-12-2018 09:20
mest skyet  
mest skyet  
   vind: nnø 5.1 m/s
vind: nnø 5.1 m/s
temperatur: 3°C
wind chill: -1°C
dugpunkt: 1°C
fugtighed: 87%
barometer: 1028 hPa
skyer: Mostly Cloudy
sigt: mere end 10 km
sky detaljer: få skyer 457.2 m,
mest skyet 2133.6 m
EKCH 120820Z 03010KT 9999 FEW015 BKN070 03/01 Q1028 NOSIG
EHBK - Maastricht
opdateret: 12-12-2018 09:25
Freezing, tåge, overskyet  
Freezing, tåge, overskyet  
   vind: ssø 1 m/s
vind: ssø 1 m/s
temperatur: 0°C
dugpunkt: -1°C
fugtighed: 93%
barometer: 1025 hPa
skyer: Overcast
sigt: 0 km
sky detaljer: overskyet 0 m
EHBK 120825Z AUTO 20002KT 0250 R21/0350N FZFG OVC000 M00/M01 Q1025 BECMG 4000 BR
ELLX - Luxemburg
opdateret: 12-12-2018 09:20
Freezing, tåge, mest skyet  
Freezing, tåge, mest skyet  
   vind: ønø 3.6 m/s
vind: ønø 3.6 m/s
temperatur: -1°C
wind chill: -5°C
dugpunkt: -1°C
fugtighed: 100%
barometer: 1024 hPa
skyer: Mostly Cloudy
sigt: 1 km
sky detaljer: delvis skyet 0 m,
mest skyet 91.4 m
ELLX 120820Z 06007KT 0900 R06/1900U FZFG SCT000 BKN003 M01/M01 Q1024 TEMPO 0600
  

script udviklet af  Saratoga-weather.org tilpasset til dette template  Weerstation Leuven

du finder også vores vejrinformationer på:

European Weather Network

Weather Underground

AWEKAS

WeatherlinkIP

Citizen Weather Observer Program (CWOP)

udstyr som vi anvender:

vejrstation
Davis VP2+

vejrprogram
Weather Display

vejrserver
Dell E6400

hjemmeside host
Webhosting.dk

Davis VP2+

Weather Display

Dell E6400

Webhosting.dk